Buoy 43519

sailwx.info

Track history (hours):
 
Tides and Currents Weather Stations Pressure Air Temp Water Temp Dewpoint Dewpoint Depression Visibility Wind Speed Wind Dir Waves Ship Positions

Drifting buoy 43519

Last reported at 2015-Mar-04 01:00 UTC. Time now 2015-Mar-04 02:50 UTC.
Position N 33°24' W 120°34'.

Barometer 1013.7 mb
Water temperature 16.3 ° C

Date/timePositionNaut miles runAvg speedWind from/ knotsBaromVisibWave heightAir tempDewpointWater temp
2015-Mar-04 01:00N 33°24' W 120°34'1 0.3 1013.7 16.3
2015-Mar-03 22:00N 33°24' W 120°34'2 0.8 1014.7 16.3
2015-Mar-03 20:00N 33°25' W 120°36'0 0.0 1015.7 16.3
2015-Mar-03 17:00N 33°25' W 120°36'0 0.0 1015.5 16.2
2015-Mar-03 15:00N 33°25' W 120°36'0 0.4 1014.0 16.1
2015-Mar-03 14:00N 33°26' W 120°36'0 0.3 1013.5 16.1
2015-Mar-03 13:00N 33°26' W 120°36'0 0.4 1013.2 16.1
2015-Mar-03 12:00N 33°26' W 120°36'0 0.2 1013.5 16.1
2015-Mar-03 11:00N 33°26' W 120°36'1 0.3 1013.4 16.1
2015-Mar-03 09:00N 33°26' W 120°37'0 0.1 1014.0 16.1
2015-Mar-03 03:00N 33°27' W 120°37'2 0.5 1012.4 16.2
2015-Mar-02 23:00N 33°28' W 120°38'1 0.9 1012.2 16.3
2015-Mar-02 22:00N 33°28' W 120°40'0 0.0 1012.2 16.3
2015-Mar-02 21:00N 33°28' W 120°40'1 0.2 1012.7 16.3
2015-Mar-02 18:00N 33°28' W 120°40'0 0.4 1013.9 16.2
2015-Mar-02 17:00N 33°28' W 120°41'1 0.2 1013.5 16.2
2015-Mar-02 14:00N 33°29' W 120°40'1 0.3 1012.5 16.2
2015-Mar-02 11:00N 33°29' W 120°41'1 1.1 1012.7 16.2
2015-Mar-02 10:00N 33°29' W 120°42'0 0.3 1013.2 16.2
2015-Mar-02 09:00N 33°30' W 120°42'0 0.0 1013.5 16.2
2015-Mar-02 05:00N 33°29' W 120°42'0 0.3 1014.2 16.3
2015-Mar-02 04:00N 33°30' W 120°42'0 0.5 1013.9 16.4
2015-Mar-02 03:00N 33°30' W 120°42'0 0.1 1013.4 16.4
2015-Mar-02 01:00N 33°30' W 120°43'1 0.7 1012.7 16.7
2015-Mar-02 00:00N 33°30' W 120°43'1 0.8 1013.0 16.7
2015-Mar-01 23:00N 33°31' W 120°43'1 0.8 1013.0 16.7
2015-Mar-01 22:00N 33°31' W 120°44'0 0.0 1013.0 16.7
2015-Mar-01 21:00N 33°31' W 120°44'1 0.3 1013.4 16.4
2015-Mar-01 18:00N 33°32' W 120°45'0 0.2 1014.0 16.2
2015-Mar-01 16:00N 33°31' W 120°45'0 0.2 1013.5 16.1
2015-Mar-01 14:00N 33°31' W 120°45'0 0.3 1012.5 16.1
2015-Mar-01 13:00N 33°31' W 120°45'1 0.2 1012.2 16.1
2015-Mar-01 09:00N 33°32' W 120°46'1 0.2 1012.9 16.1
2015-Mar-01 06:00N 33°32' W 120°46'1 0.2 1012.2 16.2
2015-Mar-01 02:00N 33°32' W 120°47'0 0.1 1011.0 16.2
2015-Mar-01 00:00N 33°33' W 120°47'1 1.1 1010.7 16.2
2015-Feb-28 23:00N 33°33' W 120°48'0 0.0 1010.7 16.3
2015-Feb-28 22:00N 33°33' W 120°48'0 0.0 1010.9 16.3
2015-Feb-28 21:00N 33°33' W 120°48'1 0.8 1011.5 16.2
2015-Feb-28 20:00N 33°33' W 120°49'1 0.3 1012.0 16.2
2015-Feb-28 17:00N 33°33' W 120°50'0 0.1 1012.0 16.2
2015-Feb-28 14:00N 33°33' W 120°51'1 0.6 1010.2 16.1
2015-Feb-28 13:00N 33°33' W 120°50'0 0.0 1009.9 16.1
2015-Feb-28 12:00N 33°33' W 120°50'1 0.5 1009.7 16.2
2015-Feb-28 11:00N 33°34' W 120°50'0 0.2 1010.2 16.2
2015-Feb-28 10:00N 33°34' W 120°50'2 0.3 1010.9 16.2
2015-Feb-28 04:00N 33°35' W 120°52'3 0.3 1010.7 16.2
2015-Feb-27 18:00N 33°37' W 120°54'0 0.0 1013.7 16.2
2015-Feb-27 17:00N 33°37' W 120°54'0 0.0 1013.7 16.2
2015-Feb-27 15:00N 33°37' W 120°54'0 0.2 1012.2 16.2
2015-Feb-27 13:00N 33°37' W 120°53'0 0.4 1011.5 16.2
2015-Feb-27 12:00N 33°38' W 120°53'0 0.0 1011.5 16.2
2015-Feb-27 11:00N 33°38' W 120°53'1 0.2 1011.7 16.2
2015-Feb-27 05:00N 33°39' W 120°54'0 0.2 1012.9 16.3
2015-Feb-27 03:00N 33°38' W 120°54'2 0.4 1012.5 16.3
2015-Feb-26 21:00N 33°40' W 120°55'2 0.3 1014.5 16.3
2015-Feb-26 13:00N 33°41' W 120°58'0 0.0 1016.0 16.3
2015-Feb-26 12:00N 33°41' W 120°58'0 0.0 1016.0 16.3
2015-Feb-26 11:00N 33°41' W 120°58'1 0.9 1016.5 16.3
2015-Feb-26 10:00N 33°41' W 120°57'1 0.2 1016.7 16.3
2015-Feb-26 05:00N 33°42' W 120°57'0 0.0 1018.9 16.3
2015-Feb-26 04:00N 33°42' W 120°57'1 0.7 1019.0 16.3
2015-Feb-26 02:00N 33°43' W 120°58'0 0.1 1018.2 16.3
2015-Feb-26 01:00N 33°43' W 120°58'0 0.0 1018.4 16.3
2015-Feb-26 00:00N 33°43' W 120°58'0 0.0 1019.2 16.3
2015-Feb-25 22:00N 33°43' W 120°58'1 0.4 1020.2 16.3
2015-Feb-25 20:00N 33°42' W 120°59'0 0.2 1021.7 16.3
2015-Feb-25 18:00N 33°43' W 120°59'0 0.0 1023.2 16.3
2015-Feb-25 17:00N 33°43' W 120°59'1 0.5 1023.5 16.3
2015-Feb-25 14:00N 33°43' W 121°00'0 0.0 1023.0 16.2
2015-Feb-25 12:00N 33°43' W 121°00'1 0.7 1023.2 16.2
2015-Feb-25 11:00N 33°43' W 121°00'0 0.0 1023.5 16.2
2015-Feb-25 10:00N 33°43' W 121°00'0 0.0 1023.9 16.2
2015-Feb-25 05:00N 33°43' W 121°00'1 0.4 1024.8 16.2
2015-Feb-25 03:00N 33°43' W 121°01'1 0.6 1024.6 16.3
2015-Feb-25 02:00N 33°43' W 121°02'0 0.2 1024.1 16.3
2015-Feb-25 01:00N 33°43' W 121°02'1 0.3 1024.0 16.3
2015-Feb-24 23:00N 33°43' W 121°02'0 0.4 1024.1 16.3
2015-Feb-24 22:00N 33°42' W 121°02'0 0.0 1024.3 16.3
2015-Feb-24 21:00N 33°42' W 121°02'1 0.7 1025.1 16.3
2015-Feb-24 20:00N 33°42' W 121°03'0 0.0 1026.0 16.3
2015-Feb-24 19:00N 33°42' W 121°03'1 0.1 1026.6 16.2
2015-Feb-24 14:00N 33°42' W 121°03'0 0.3 1024.6 16.2
2015-Feb-24 13:00N 33°42' W 121°04'1 0.5 1024.0 16.2
2015-Feb-24 12:00N 33°42' W 121°04'3 1.0 1023.7 16.2
2015-Feb-24 09:00N 33°39' W 121°03'0 0.0 1023.0 16.3
2015-Feb-24 06:00N 33°39' W 121°03'0 0.0 1021.7 16.3
2015-Feb-24 05:00N 33°39' W 121°03'1 0.5 1021.0 16.3
2015-Feb-24 03:00N 33°39' W 121°04'0 0.0 1019.7 16.4
2015-Feb-24 02:00N 33°39' W 121°04'0 0.4 1019.4 16.4
2015-Feb-24 01:00N 33°39' W 121°05'1 0.6 1019.2 16.4
2015-Feb-24 00:00N 33°38' W 121°04'0 0.2 1019.0 16.5
2015-Feb-23 23:00N 33°38' W 121°04'0 0.0 1018.7 16.4
2015-Feb-23 22:00N 33°38' W 121°04'1 0.3 1018.0 16.4
2015-Feb-23 19:00N 33°37' W 121°04'0 0.2 1018.0 16.3
2015-Feb-23 17:00N 33°38' W 121°04'1 0.7 1016.5 16.3
2015-Feb-23 16:00N 33°37' W 121°05'0 0.3 1015.4 16.3
2015-Feb-23 15:00N 33°37' W 121°05'0 0.0 1014.5 16.3
2015-Feb-23 14:00N 33°37' W 121°05'1 0.6 1013.9 16.3
2015-Feb-23 13:00N 33°36' W 121°06'2 2.1 1013.5 16.3
2015-Feb-23 12:00N 33°35' W 121°04'0 0.0 1013.5 16.4
2015-Feb-23 09:00N 33°35' W 121°04'0 0.0 1013.0 16.4
2015-Feb-23 05:00N 33°35' W 121°04'1 0.5 1011.7 16.4
2015-Feb-23 04:00N 33°34' W 121°05'0 0.0 1011.4 16.4
2015-Feb-23 02:00N 33°34' W 121°05'1 1.4 1010.5 16.4
2015-Feb-23 01:00N 33°34' W 121°07'0 0.3 1010.2 16.5
2015-Feb-23 00:00N 33°34' W 121°06'0 0.2 1009.9 16.5
2015-Feb-22 22:00N 33°33' W 121°06'1 0.4 1009.9 16.5
2015-Feb-22 20:00N 33°33' W 121°06'1 0.9 1011.0 16.4
2015-Feb-22 19:00N 33°32' W 121°06'0 0.2 1011.9 16.5
2015-Feb-22 17:00N 33°31' W 121°06'1 0.6 1012.2 16.4
2015-Feb-22 15:00N 33°30' W 121°07'0 0.4 1011.5 16.5
2015-Feb-22 14:00N 33°30' W 121°07'1 0.5 1011.5 16.4
2015-Feb-22 13:00N 33°30' W 121°07'1 0.7 1011.4 16.5
2015-Feb-22 12:00N 33°29' W 121°07'0 0.0 1011.5 16.5
2015-Feb-22 11:00N 33°29' W 121°07'2 1.0 1012.0 16.5
2015-Feb-22 09:00N 33°27' W 121°05'0 0.0 1012.5 16.5
2015-Feb-22 05:00N 33°27' W 121°05'0 0.3 1013.4 16.5
2015-Feb-22 04:00N 33°27' W 121°06'2 1.6 1013.2 16.5
2015-Feb-22 03:00N 33°26' W 121°07'0 0.0 1013.0 16.5
2015-Feb-22 02:00N 33°26' W 121°07'0 0.0 1013.0 16.5
2015-Feb-22 01:00N 33°26' W 121°07'   1012.5 16.5
Track history (hours):
 
Tides and Currents Weather Stations Pressure Air Temp Water Temp Dewpoint Dewpoint Depression Visibility Wind Speed Wind Dir Waves Ship Positions

Drifting buoy 43519

Last reported at 2015-Mar-04 01:00 UTC. Time now 2015-Mar-04 02:50 UTC.
Position N 33°24' W 120°34'.

Barometer 1013.7 mb
Water temperature 16.3 ° C

Date/timePositionNaut miles runAvg speedWind from/ knotsBaromVisibWave heightAir tempDewpointWater temp
2015-Mar-04 01:00N 33°24' W 120°34'1 0.3 1013.7 16.3
2015-Mar-03 22:00N 33°24' W 120°34'2 0.8 1014.7 16.3
2015-Mar-03 20:00N 33°25' W 120°36'0 0.0 1015.7 16.3
2015-Mar-03 17:00N 33°25' W 120°36'0 0.0 1015.5 16.2
2015-Mar-03 15:00N 33°25' W 120°36'0 0.4 1014.0 16.1
2015-Mar-03 14:00N 33°26' W 120°36'0 0.3 1013.5 16.1
2015-Mar-03 13:00N 33°26' W 120°36'0 0.4 1013.2 16.1
2015-Mar-03 12:00N 33°26' W 120°36'0 0.2 1013.5 16.1
2015-Mar-03 11:00N 33°26' W 120°36'1 0.3 1013.4 16.1
2015-Mar-03 09:00N 33°26' W 120°37'0 0.1 1014.0 16.1
2015-Mar-03 03:00N 33°27' W 120°37'2 0.5 1012.4 16.2
2015-Mar-02 23:00N 33°28' W 120°38'1 0.9 1012.2 16.3
2015-Mar-02 22:00N 33°28' W 120°40'0 0.0 1012.2 16.3
2015-Mar-02 21:00N 33°28' W 120°40'1 0.2 1012.7 16.3
2015-Mar-02 18:00N 33°28' W 120°40'0 0.4 1013.9 16.2
2015-Mar-02 17:00N 33°28' W 120°41'1 0.2 1013.5 16.2
2015-Mar-02 14:00N 33°29' W 120°40'1 0.3 1012.5 16.2
2015-Mar-02 11:00N 33°29' W 120°41'1 1.1 1012.7 16.2
2015-Mar-02 10:00N 33°29' W 120°42'0 0.3 1013.2 16.2
2015-Mar-02 09:00N 33°30' W 120°42'0 0.0 1013.5 16.2
2015-Mar-02 05:00N 33°29' W 120°42'0 0.3 1014.2 16.3
2015-Mar-02 04:00N 33°30' W 120°42'0 0.5 1013.9 16.4
2015-Mar-02 03:00N 33°30' W 120°42'0 0.1 1013.4 16.4
2015-Mar-02 01:00N 33°30' W 120°43'1 0.7 1012.7 16.7
2015-Mar-02 00:00N 33°30' W 120°43'1 0.8 1013.0 16.7
2015-Mar-01 23:00N 33°31' W 120°43'1 0.8 1013.0 16.7
2015-Mar-01 22:00N 33°31' W 120°44'0 0.0 1013.0 16.7
2015-Mar-01 21:00N 33°31' W 120°44'1 0.3 1013.4 16.4
2015-Mar-01 18:00N 33°32' W 120°45'0 0.2 1014.0 16.2
2015-Mar-01 16:00N 33°31' W 120°45'0 0.2 1013.5 16.1
2015-Mar-01 14:00N 33°31' W 120°45'0 0.3 1012.5 16.1
2015-Mar-01 13:00N 33°31' W 120°45'1 0.2 1012.2 16.1
2015-Mar-01 09:00N 33°32' W 120°46'1 0.2 1012.9 16.1
2015-Mar-01 06:00N 33°32' W 120°46'1 0.2 1012.2 16.2
2015-Mar-01 02:00N 33°32' W 120°47'0 0.1 1011.0 16.2
2015-Mar-01 00:00N 33°33' W 120°47'1 1.1 1010.7 16.2
2015-Feb-28 23:00N 33°33' W 120°48'0 0.0 1010.7 16.3
2015-Feb-28 22:00N 33°33' W 120°48'0 0.0 1010.9 16.3
2015-Feb-28 21:00N 33°33' W 120°48'1 0.8 1011.5 16.2
2015-Feb-28 20:00N 33°33' W 120°49'1 0.3 1012.0 16.2
2015-Feb-28 17:00N 33°33' W 120°50'0 0.1 1012.0 16.2
2015-Feb-28 14:00N 33°33' W 120°51'1 0.6 1010.2 16.1
2015-Feb-28 13:00N 33°33' W 120°50'0 0.0 1009.9 16.1
2015-Feb-28 12:00N 33°33' W 120°50'1 0.5 1009.7 16.2
2015-Feb-28 11:00N 33°34' W 120°50'0 0.2 1010.2 16.2
2015-Feb-28 10:00N 33°34' W 120°50'2 0.3 1010.9 16.2
2015-Feb-28 04:00N 33°35' W 120°52'3 0.3 1010.7 16.2
2015-Feb-27 18:00N 33°37' W 120°54'0 0.0 1013.7 16.2
2015-Feb-27 17:00N 33°37' W 120°54'0 0.0 1013.7 16.2
2015-Feb-27 15:00N 33°37' W 120°54'0 0.2 1012.2 16.2
2015-Feb-27 13:00N 33°37' W 120°53'0 0.4 1011.5 16.2
2015-Feb-27 12:00N 33°38' W 120°53'0 0.0 1011.5 16.2
2015-Feb-27 11:00N 33°38' W 120°53'1 0.2 1011.7 16.2
2015-Feb-27 05:00N 33°39' W 120°54'0 0.2 1012.9 16.3
2015-Feb-27 03:00N 33°38' W 120°54'2 0.4 1012.5 16.3
2015-Feb-26 21:00N 33°40' W 120°55'2 0.3 1014.5 16.3
2015-Feb-26 13:00N 33°41' W 120°58'0 0.0 1016.0 16.3
2015-Feb-26 12:00N 33°41' W 120°58'0 0.0 1016.0 16.3
2015-Feb-26 11:00N 33°41' W 120°58'1 0.9 1016.5 16.3
2015-Feb-26 10:00N 33°41' W 120°57'1 0.2 1016.7 16.3
2015-Feb-26 05:00N 33°42' W 120°57'0 0.0 1018.9 16.3
2015-Feb-26 04:00N 33°42' W 120°57'1 0.7 1019.0 16.3
2015-Feb-26 02:00N 33°43' W 120°58'0 0.1 1018.2 16.3
2015-Feb-26 01:00N 33°43' W 120°58'0 0.0 1018.4 16.3
2015-Feb-26 00:00N 33°43' W 120°58'0 0.0 1019.2 16.3
2015-Feb-25 22:00N 33°43' W 120°58'1 0.4 1020.2 16.3
2015-Feb-25 20:00N 33°42' W 120°59'0 0.2 1021.7 16.3
2015-Feb-25 18:00N 33°43' W 120°59'0 0.0 1023.2 16.3
2015-Feb-25 17:00N 33°43' W 120°59'1 0.5 1023.5 16.3
2015-Feb-25 14:00N 33°43' W 121°00'0 0.0 1023.0 16.2
2015-Feb-25 12:00N 33°43' W 121°00'1 0.7 1023.2 16.2
2015-Feb-25 11:00N 33°43' W 121°00'0 0.0 1023.5 16.2
2015-Feb-25 10:00N 33°43' W 121°00'0 0.0 1023.9 16.2
2015-Feb-25 05:00N 33°43' W 121°00'1 0.4 1024.8 16.2
2015-Feb-25 03:00N 33°43' W 121°01'1 0.6 1024.6 16.3
2015-Feb-25 02:00N 33°43' W 121°02'0 0.2 1024.1 16.3
2015-Feb-25 01:00N 33°43' W 121°02'1 0.3 1024.0 16.3
2015-Feb-24 23:00N 33°43' W 121°02'0 0.4 1024.1 16.3
2015-Feb-24 22:00N 33°42' W 121°02'0 0.0 1024.3 16.3
2015-Feb-24 21:00N 33°42' W 121°02'1 0.7 1025.1 16.3
2015-Feb-24 20:00N 33°42' W 121°03'0 0.0 1026.0 16.3
2015-Feb-24 19:00N 33°42' W 121°03'1 0.1 1026.6 16.2
2015-Feb-24 14:00N 33°42' W 121°03'0 0.3 1024.6 16.2
2015-Feb-24 13:00N 33°42' W 121°04'1 0.5 1024.0 16.2
2015-Feb-24 12:00N 33°42' W 121°04'3 1.0 1023.7 16.2
2015-Feb-24 09:00N 33°39' W 121°03'0 0.0 1023.0 16.3
2015-Feb-24 06:00N 33°39' W 121°03'0 0.0 1021.7 16.3
2015-Feb-24 05:00N 33°39' W 121°03'1 0.5 1021.0 16.3
2015-Feb-24 03:00N 33°39' W 121°04'0 0.0 1019.7 16.4
2015-Feb-24 02:00N 33°39' W 121°04'0 0.4 1019.4 16.4
2015-Feb-24 01:00N 33°39' W 121°05'1 0.6 1019.2 16.4
2015-Feb-24 00:00N 33°38' W 121°04'0 0.2 1019.0 16.5
2015-Feb-23 23:00N 33°38' W 121°04'0 0.0 1018.7 16.4
2015-Feb-23 22:00N 33°38' W 121°04'1 0.3 1018.0 16.4
2015-Feb-23 19:00N 33°37' W 121°04'0 0.2 1018.0 16.3
2015-Feb-23 17:00N 33°38' W 121°04'1 0.7 1016.5 16.3
2015-Feb-23 16:00N 33°37' W 121°05'0 0.3 1015.4 16.3
2015-Feb-23 15:00N 33°37' W 121°05'0 0.0 1014.5 16.3
2015-Feb-23 14:00N 33°37' W 121°05'1 0.6 1013.9 16.3
2015-Feb-23 13:00N 33°36' W 121°06'2 2.1 1013.5 16.3
2015-Feb-23 12:00N 33°35' W 121°04'0 0.0 1013.5 16.4
2015-Feb-23 09:00N 33°35' W 121°04'0 0.0 1013.0 16.4
2015-Feb-23 05:00N 33°35' W 121°04'1 0.5 1011.7 16.4
2015-Feb-23 04:00N 33°34' W 121°05'0 0.0 1011.4 16.4
2015-Feb-23 02:00N 33°34' W 121°05'1 1.4 1010.5 16.4
2015-Feb-23 01:00N 33°34' W 121°07'0 0.3 1010.2 16.5
2015-Feb-23 00:00N 33°34' W 121°06'0 0.2 1009.9 16.5
2015-Feb-22 22:00N 33°33' W 121°06'1 0.4 1009.9 16.5
2015-Feb-22 20:00N 33°33' W 121°06'1 0.9 1011.0 16.4
2015-Feb-22 19:00N 33°32' W 121°06'0 0.2 1011.9 16.5
2015-Feb-22 17:00N 33°31' W 121°06'1 0.6 1012.2 16.4
2015-Feb-22 15:00N 33°30' W 121°07'0 0.4 1011.5 16.5
2015-Feb-22 14:00N 33°30' W 121°07'1 0.5 1011.5 16.4
2015-Feb-22 13:00N 33°30' W 121°07'1 0.7 1011.4 16.5
2015-Feb-22 12:00N 33°29' W 121°07'0 0.0 1011.5 16.5
2015-Feb-22 11:00N 33°29' W 121°07'2 1.0 1012.0 16.5
2015-Feb-22 09:00N 33°27' W 121°05'0 0.0 1012.5 16.5
2015-Feb-22 05:00N 33°27' W 121°05'0 0.3 1013.4 16.5
2015-Feb-22 04:00N 33°27' W 121°06'2 1.6 1013.2 16.5
2015-Feb-22 03:00N 33°26' W 121°07'0 0.0 1013.0 16.5
2015-Feb-22 02:00N 33°26' W 121°07'0 0.0 1013.0 16.5
2015-Feb-22 01:00N 33°26' W 121°07'   1012.5 16.5

Dump ship's entire track history